sensor_id;sensor_type;location;lat;lon;timestamp;P1;durP1;ratioP1;P2;durP2;ratioP2
27939;SDS011;15275;51.716;14.324;2023-03-04T00:01:53;29.90;;;14.65;;
27939;SDS011;15275;51.716;14.324;2023-03-04T00:04:19;36.22;;;15.93;;
27939;SDS011;15275;51.716;14.324;2023-03-04T00:06:45;33.17;;;16.15;;
27939;SDS011;15275;51.716;14.324;2023-03-04T00:09:11;40.30;;;18.17;;
27939;SDS011;15275;51.716;14.324;2023-03-04T00:11:36;36.40;;;16.67;;
27939;SDS011;15275;51.716;14.324;2023-03-04T00:14:02;37.85;;;15.75;;
27939;SDS011;15275;51.716;14.324;2023-03-04T00:16:28;39.85;;;17.17;;
27939;SDS011;15275;51.716;14.324;2023-03-04T00:18:54;34.33;;;15.20;;
27939;SDS011;15275;51.716;14.324;2023-03-04T00:21:21;31.17;;;15.35;;
27939;SDS011;15275;51.716;14.324;2023-03-04T00:23:47;34.55;;;14.88;;
27939;SDS011;15275;51.716;14.324;2023-03-04T00:26:13;31.25;;;14.20;;
27939;SDS011;15275;51.716;14.324;2023-03-04T00:28:41;30.63;;;13.98;;
27939;SDS011;15275;51.716;14.324;2023-03-04T00:31:07;30.42;;;15.10;;
27939;SDS011;15275;51.716;14.324;2023-03-04T00:33:33;26.65;;;13.18;;
27939;SDS011;15275;51.716;14.324;2023-03-04T00:36:00;31.05;;;14.55;;
27939;SDS011;15275;51.716;14.324;2023-03-04T00:38:28;26.02;;;12.90;;
27939;SDS011;15275;51.716;14.324;2023-03-04T00:40:54;29.77;;;14.82;;
27939;SDS011;15275;51.716;14.324;2023-03-04T00:43:20;30.75;;;13.10;;
27939;SDS011;15275;51.716;14.324;2023-03-04T00:45:46;31.77;;;14.13;;
27939;SDS011;15275;51.716;14.324;2023-03-04T00:48:12;26.23;;;13.63;;
27939;SDS011;15275;51.716;14.324;2023-03-04T00:50:38;27.80;;;13.38;;
27939;SDS011;15275;51.716;14.324;2023-03-04T00:53:04;30.17;;;13.10;;
27939;SDS011;15275;51.716;14.324;2023-03-04T00:55:30;34.30;;;15.15;;
27939;SDS011;15275;51.716;14.324;2023-03-04T00:57:56;28.08;;;13.82;;
27939;SDS011;15275;51.716;14.324;2023-03-04T01:00:22;32.05;;;14.25;;
27939;SDS011;15275;51.716;14.324;2023-03-04T01:02:48;29.00;;;15.32;;
27939;SDS011;15275;51.716;14.324;2023-03-04T01:05:14;31.35;;;14.80;;
27939;SDS011;15275;51.716;14.324;2023-03-04T01:07:40;32.88;;;14.88;;
27939;SDS011;15275;51.716;14.324;2023-03-04T01:10:06;31.08;;;15.10;;
27939;SDS011;15275;51.716;14.324;2023-03-04T01:12:34;29.35;;;14.07;;
27939;SDS011;15275;51.716;14.324;2023-03-04T01:15:00;28.48;;;15.13;;
27939;SDS011;15275;51.716;14.324;2023-03-04T01:17:25;28.13;;;13.60;;
27939;SDS011;15275;51.716;14.324;2023-03-04T01:19:51;28.17;;;15.02;;
27939;SDS011;15275;51.716;14.324;2023-03-04T01:22:17;27.15;;;13.63;;
27939;SDS011;15275;51.716;14.324;2023-03-04T01:24:43;25.48;;;13.00;;
27939;SDS011;15275;51.716;14.324;2023-03-04T01:27:10;27.20;;;13.48;;
27939;SDS011;15275;51.716;14.324;2023-03-04T01:29:36;27.05;;;13.18;;
27939;SDS011;15275;51.716;14.324;2023-03-04T01:32:02;25.98;;;13.07;;
27939;SDS011;15275;51.716;14.324;2023-03-04T01:34:28;29.85;;;13.23;;
27939;SDS011;15275;51.716;14.324;2023-03-04T01:36:54;26.95;;;12.82;;
27939;SDS011;15275;51.716;14.324;2023-03-04T01:39:20;24.42;;;11.63;;
27939;SDS011;15275;51.716;14.324;2023-03-04T01:41:46;29.20;;;14.57;;
27939;SDS011;15275;51.716;14.324;2023-03-04T01:44:12;25.65;;;12.32;;
27939;SDS011;15275;51.716;14.324;2023-03-04T01:46:39;27.95;;;12.90;;
27939;SDS011;15275;51.716;14.324;2023-03-04T01:49:10;26.33;;;13.90;;
27939;SDS011;15275;51.716;14.324;2023-03-04T01:51:38;29.00;;;12.85;;
27939;SDS011;15275;51.716;14.324;2023-03-04T01:54:13;31.38;;;13.25;;
27939;SDS011;15275;51.716;14.324;2023-03-04T01:56:40;30.20;;;13.13;;
27939;SDS011;15275;51.716;14.324;2023-03-04T01:59:14;25.60;;;11.88;;
27939;SDS011;15275;51.716;14.324;2023-03-04T02:01:50;23.42;;;12.10;;
27939;SDS011;15275;51.716;14.324;2023-03-04T02:04:23;24.55;;;11.88;;
27939;SDS011;15275;51.716;14.324;2023-03-04T02:06:55;24.30;;;12.23;;
27939;SDS011;15275;51.716;14.324;2023-03-04T02:09:23;24.38;;;11.32;;
27939;SDS011;15275;51.716;14.324;2023-03-04T02:11:49;25.63;;;11.80;;
27939;SDS011;15275;51.716;14.324;2023-03-04T02:14:16;31.02;;;12.77;;
27939;SDS011;15275;51.716;14.324;2023-03-04T02:16:44;22.88;;;11.85;;
27939;SDS011;15275;51.716;14.324;2023-03-04T02:22:15;22.98;;;11.52;;
27939;SDS011;15275;51.716;14.324;2023-03-04T02:24:45;20.20;;;11.38;;
27939;SDS011;15275;51.716;14.324;2023-03-04T02:27:14;20.30;;;11.25;;
27939;SDS011;15275;51.716;14.324;2023-03-04T02:29:40;25.05;;;13.13;;
27939;SDS011;15275;51.716;14.324;2023-03-04T02:32:05;25.42;;;12.05;;
27939;SDS011;15275;51.716;14.324;2023-03-04T02:34:35;23.65;;;12.38;;
27939;SDS011;15275;51.716;14.324;2023-03-04T02:37:01;23.85;;;11.35;;
27939;SDS011;15275;51.716;14.324;2023-03-04T02:42:20;18.00;;;10.68;;
27939;SDS011;15275;51.716;14.324;2023-03-04T02:44:46;27.73;;;11.57;;
27939;SDS011;15275;51.716;14.324;2023-03-04T02:47:15;24.42;;;12.23;;
27939;SDS011;15275;51.716;14.324;2023-03-04T02:49:42;22.02;;;11.10;;
27939;SDS011;15275;51.716;14.324;2023-03-04T02:54:38;21.75;;;10.73;;
27939;SDS011;15275;51.716;14.324;2023-03-04T02:57:06;20.02;;;11.32;;
27939;SDS011;15275;51.716;14.324;2023-03-04T02:59:35;21.02;;;11.77;;
27939;SDS011;15275;51.716;14.324;2023-03-04T03:02:03;22.77;;;12.32;;
27939;SDS011;15275;51.716;14.324;2023-03-04T03:04:29;34.60;;;12.60;;
27939;SDS011;15275;51.716;14.324;2023-03-04T03:06:55;26.52;;;11.60;;
27939;SDS011;15275;51.716;14.324;2023-03-04T03:09:21;21.58;;;11.23;;
27939;SDS011;15275;51.716;14.324;2023-03-04T03:11:47;23.33;;;12.10;;
27939;SDS011;15275;51.716;14.324;2023-03-04T03:14:13;23.50;;;11.90;;
27939;SDS011;15275;51.716;14.324;2023-03-04T03:16:39;24.08;;;12.00;;
27939;SDS011;15275;51.716;14.324;2023-03-04T03:19:05;24.92;;;11.65;;
27939;SDS011;15275;51.716;14.324;2023-03-04T03:21:31;27.33;;;11.75;;
27939;SDS011;15275;51.716;14.324;2023-03-04T03:23:57;23.15;;;12.15;;
27939;SDS011;15275;51.716;14.324;2023-03-04T03:26:23;29.17;;;12.27;;
27939;SDS011;15275;51.716;14.324;2023-03-04T03:28:49;28.15;;;12.10;;
27939;SDS011;15275;51.716;14.324;2023-03-04T03:31:15;27.20;;;11.75;;
27939;SDS011;15275;51.716;14.324;2023-03-04T03:33:40;20.70;;;10.60;;
27939;SDS011;15275;51.716;14.324;2023-03-04T03:36:07;21.73;;;12.05;;
27939;SDS011;15275;51.716;14.324;2023-03-04T03:38:33;28.73;;;12.98;;
27939;SDS011;15275;51.716;14.324;2023-03-04T03:40:59;26.05;;;11.85;;
27939;SDS011;15275;51.716;14.324;2023-03-04T03:43:25;26.10;;;12.13;;
27939;SDS011;15275;51.716;14.324;2023-03-04T03:45:51;26.90;;;11.80;;
27939;SDS011;15275;51.716;14.324;2023-03-04T03:48:17;26.58;;;11.70;;
27939;SDS011;15275;51.716;14.324;2023-03-04T03:50:43;20.52;;;10.05;;
27939;SDS011;15275;51.716;14.324;2023-03-04T03:53:09;25.63;;;11.60;;
27939;SDS011;15275;51.716;14.324;2023-03-04T03:55:35;22.27;;;9.60;;
27939;SDS011;15275;51.716;14.324;2023-03-04T03:58:02;18.13;;;9.25;;
27939;SDS011;15275;51.716;14.324;2023-03-04T04:00:29;27.55;;;8.80;;
27939;SDS011;15275;51.716;14.324;2023-03-04T04:02:55;22.23;;;9.25;;
27939;SDS011;15275;51.716;14.324;2023-03-04T04:05:23;18.80;;;9.23;;
27939;SDS011;15275;51.716;14.324;2023-03-04T04:07:49;19.95;;;7.85;;
27939;SDS011;15275;51.716;14.324;2023-03-04T04:10:15;18.73;;;8.13;;
27939;SDS011;15275;51.716;14.324;2023-03-04T04:12:41;22.73;;;7.68;;
27939;SDS011;15275;51.716;14.324;2023-03-04T04:15:08;18.52;;;7.90;;
27939;SDS011;15275;51.716;14.324;2023-03-04T04:17:36;19.05;;;7.97;;
27939;SDS011;15275;51.716;14.324;2023-03-04T04:20:02;16.75;;;7.05;;
27939;SDS011;15275;51.716;14.324;2023-03-04T04:22:31;20.80;;;7.65;;
27939;SDS011;15275;51.716;14.324;2023-03-04T04:24:57;22.20;;;8.02;;
27939;SDS011;15275;51.716;14.324;2023-03-04T04:27:23;16.08;;;8.55;;
27939;SDS011;15275;51.716;14.324;2023-03-04T04:29:48;19.10;;;7.05;;
27939;SDS011;15275;51.716;14.324;2023-03-04T04:32:14;14.48;;;7.32;;
27939;SDS011;15275;51.716;14.324;2023-03-04T04:34:40;27.00;;;8.35;;
27939;SDS011;15275;51.716;14.324;2023-03-04T04:37:06;17.98;;;7.68;;
27939;SDS011;15275;51.716;14.324;2023-03-04T04:39:32;24.63;;;6.97;;
27939;SDS011;15275;51.716;14.324;2023-03-04T04:41:58;17.92;;;7.85;;
27939;SDS011;15275;51.716;14.324;2023-03-04T04:44:23;19.75;;;6.65;;
27939;SDS011;15275;51.716;14.324;2023-03-04T04:46:49;18.95;;;7.75;;
27939;SDS011;15275;51.716;14.324;2023-03-04T04:49:15;20.23;;;7.97;;
27939;SDS011;15275;51.716;14.324;2023-03-04T04:51:41;17.70;;;7.40;;
27939;SDS011;15275;51.716;14.324;2023-03-04T04:54:07;22.67;;;7.72;;
27939;SDS011;15275;51.716;14.324;2023-03-04T04:56:34;15.80;;;7.10;;
27939;SDS011;15275;51.716;14.324;2023-03-04T04:59:01;22.73;;;10.07;;
27939;SDS011;15275;51.716;14.324;2023-03-04T05:01:29;16.10;;;8.60;;
27939;SDS011;15275;51.716;14.324;2023-03-04T05:03:54;14.02;;;7.05;;
27939;SDS011;15275;51.716;14.324;2023-03-04T05:06:21;13.70;;;6.20;;
27939;SDS011;15275;51.716;14.324;2023-03-04T05:08:48;14.95;;;6.90;;
27939;SDS011;15275;51.716;14.324;2023-03-04T05:11:15;16.90;;;7.30;;
27939;SDS011;15275;51.716;14.324;2023-03-04T05:13:41;23.42;;;7.30;;
27939;SDS011;15275;51.716;14.324;2023-03-04T05:16:07;17.75;;;6.93;;
27939;SDS011;15275;51.716;14.324;2023-03-04T05:18:33;16.55;;;7.40;;
27939;SDS011;15275;51.716;14.324;2023-03-04T05:21:00;16.65;;;6.20;;
27939;SDS011;15275;51.716;14.324;2023-03-04T05:23:28;14.05;;;6.60;;
27939;SDS011;15275;51.716;14.324;2023-03-04T05:25:58;16.92;;;7.10;;
27939;SDS011;15275;51.716;14.324;2023-03-04T05:28:24;19.10;;;6.57;;
27939;SDS011;15275;51.716;14.324;2023-03-04T05:30:50;14.13;;;7.25;;
27939;SDS011;15275;51.716;14.324;2023-03-04T05:33:16;18.38;;;6.85;;
27939;SDS011;15275;51.716;14.324;2023-03-04T05:35:43;12.20;;;6.00;;
27939;SDS011;15275;51.716;14.324;2023-03-04T05:38:13;17.27;;;6.47;;
27939;SDS011;15275;51.716;14.324;2023-03-04T05:40:41;13.48;;;6.60;;
27939;SDS011;15275;51.716;14.324;2023-03-04T05:43:08;16.75;;;7.50;;
27939;SDS011;15275;51.716;14.324;2023-03-04T05:45:35;17.00;;;7.07;;
27939;SDS011;15275;51.716;14.324;2023-03-04T05:48:02;15.55;;;7.30;;
27939;SDS011;15275;51.716;14.324;2023-03-04T05:50:28;18.17;;;7.18;;
27939;SDS011;15275;51.716;14.324;2023-03-04T05:52:54;15.23;;;7.78;;
27939;SDS011;15275;51.716;14.324;2023-03-04T05:55:20;19.38;;;7.38;;
27939;SDS011;15275;51.716;14.324;2023-03-04T05:57:46;14.65;;;7.07;;
27939;SDS011;15275;51.716;14.324;2023-03-04T06:00:12;15.45;;;7.28;;
27939;SDS011;15275;51.716;14.324;2023-03-04T06:02:40;13.18;;;6.40;;
27939;SDS011;15275;51.716;14.324;2023-03-04T06:05:07;16.67;;;7.13;;
27939;SDS011;15275;51.716;14.324;2023-03-04T06:07:38;16.33;;;7.22;;
27939;SDS011;15275;51.716;14.324;2023-03-04T06:10:04;11.82;;;6.38;;
27939;SDS011;15275;51.716;14.324;2023-03-04T06:12:31;20.27;;;8.45;;
27939;SDS011;15275;51.716;14.324;2023-03-04T06:14:57;19.60;;;7.30;;
27939;SDS011;15275;51.716;14.324;2023-03-04T06:17:23;25.15;;;8.52;;
27939;SDS011;15275;51.716;14.324;2023-03-04T06:19:48;15.52;;;6.97;;
27939;SDS011;15275;51.716;14.324;2023-03-04T06:22:14;18.70;;;6.95;;
27939;SDS011;15275;51.716;14.324;2023-03-04T06:24:40;21.60;;;7.85;;
27939;SDS011;15275;51.716;14.324;2023-03-04T06:27:06;16.90;;;7.45;;
27939;SDS011;15275;51.716;14.324;2023-03-04T06:29:32;17.52;;;7.47;;
27939;SDS011;15275;51.716;14.324;2023-03-04T06:31:58;18.52;;;7.80;;
27939;SDS011;15275;51.716;14.324;2023-03-04T06:34:24;23.27;;;7.22;;
27939;SDS011;15275;51.716;14.324;2023-03-04T06:36:50;18.15;;;8.00;;
27939;SDS011;15275;51.716;14.324;2023-03-04T06:39:15;19.80;;;7.20;;
27939;SDS011;15275;51.716;14.324;2023-03-04T06:41:41;17.98;;;7.97;;
27939;SDS011;15275;51.716;14.324;2023-03-04T06:44:07;18.40;;;7.70;;
27939;SDS011;15275;51.716;14.324;2023-03-04T06:46:33;19.13;;;7.75;;
27939;SDS011;15275;51.716;14.324;2023-03-04T06:49:00;18.90;;;6.35;;
27939;SDS011;15275;51.716;14.324;2023-03-04T06:51:26;13.32;;;6.85;;
27939;SDS011;15275;51.716;14.324;2023-03-04T06:53:53;14.77;;;7.20;;
27939;SDS011;15275;51.716;14.324;2023-03-04T06:56:19;17.17;;;7.40;;
27939;SDS011;15275;51.716;14.324;2023-03-04T06:58:45;21.75;;;6.85;;
27939;SDS011;15275;51.716;14.324;2023-03-04T07:01:15;17.58;;;6.80;;
27939;SDS011;15275;51.716;14.324;2023-03-04T07:03:48;18.08;;;7.40;;
27939;SDS011;15275;51.716;14.324;2023-03-04T07:06:16;16.83;;;6.50;;
27939;SDS011;15275;51.716;14.324;2023-03-04T07:08:45;14.40;;;6.47;;
27939;SDS011;15275;51.716;14.324;2023-03-04T07:11:11;15.23;;;6.63;;
27939;SDS011;15275;51.716;14.324;2023-03-04T07:13:38;14.50;;;6.88;;
27939;SDS011;15275;51.716;14.324;2023-03-04T07:16:05;17.35;;;8.07;;
27939;SDS011;15275;51.716;14.324;2023-03-04T07:18:33;18.50;;;6.07;;
27939;SDS011;15275;51.716;14.324;2023-03-04T07:20:59;16.52;;;7.88;;
27939;SDS011;15275;51.716;14.324;2023-03-04T07:23:25;19.10;;;7.20;;
27939;SDS011;15275;51.716;14.324;2023-03-04T07:25:51;16.85;;;6.85;;
27939;SDS011;15275;51.716;14.324;2023-03-04T07:28:17;15.07;;;6.30;;
27939;SDS011;15275;51.716;14.324;2023-03-04T07:30:43;17.73;;;6.80;;
27939;SDS011;15275;51.716;14.324;2023-03-04T07:33:09;16.45;;;6.82;;
27939;SDS011;15275;51.716;14.324;2023-03-04T07:35:35;12.93;;;6.43;;
27939;SDS011;15275;51.716;14.324;2023-03-04T07:38:01;16.60;;;7.15;;
27939;SDS011;15275;51.716;14.324;2023-03-04T07:40:27;19.17;;;6.07;;
27939;SDS011;15275;51.716;14.324;2023-03-04T07:42:54;14.77;;;6.90;;
27939;SDS011;15275;51.716;14.324;2023-03-04T07:45:20;16.30;;;6.93;;
27939;SDS011;15275;51.716;14.324;2023-03-04T07:47:48;16.70;;;7.43;;
27939;SDS011;15275;51.716;14.324;2023-03-04T07:50:14;14.07;;;7.18;;
27939;SDS011;15275;51.716;14.324;2023-03-04T07:52:42;13.77;;;6.80;;
27939;SDS011;15275;51.716;14.324;2023-03-04T07:55:11;14.38;;;6.63;;
27939;SDS011;15275;51.716;14.324;2023-03-04T07:57:39;17.25;;;5.88;;
27939;SDS011;15275;51.716;14.324;2023-03-04T08:00:07;19.63;;;6.88;;
27939;SDS011;15275;51.716;14.324;2023-03-04T08:02:36;12.13;;;5.63;;
27939;SDS011;15275;51.716;14.324;2023-03-04T08:05:02;18.77;;;6.50;;
27939;SDS011;15275;51.716;14.324;2023-03-04T08:07:28;16.75;;;6.60;;
27939;SDS011;15275;51.716;14.324;2023-03-04T08:09:54;13.07;;;6.40;;
27939;SDS011;15275;51.716;14.324;2023-03-04T08:12:20;14.73;;;7.15;;
27939;SDS011;15275;51.716;14.324;2023-03-04T08:14:48;14.52;;;6.97;;
27939;SDS011;15275;51.716;14.324;2023-03-04T08:17:15;14.30;;;7.22;;
27939;SDS011;15275;51.716;14.324;2023-03-04T08:19:40;16.13;;;7.10;;
27939;SDS011;15275;51.716;14.324;2023-03-04T08:22:06;17.98;;;7.03;;
27939;SDS011;15275;51.716;14.324;2023-03-04T08:24:32;11.30;;;5.78;;
27939;SDS011;15275;51.716;14.324;2023-03-04T08:26:58;15.85;;;6.18;;
27939;SDS011;15275;51.716;14.324;2023-03-04T08:29:24;15.65;;;6.47;;
27939;SDS011;15275;51.716;14.324;2023-03-04T08:31:51;18.70;;;6.40;;
27939;SDS011;15275;51.716;14.324;2023-03-04T08:34:20;17.35;;;5.95;;
27939;SDS011;15275;51.716;14.324;2023-03-04T08:36:49;14.77;;;7.05;;
27939;SDS011;15275;51.716;14.324;2023-03-04T08:39:16;11.80;;;6.05;;
27939;SDS011;15275;51.716;14.324;2023-03-04T08:41:43;12.50;;;5.68;;
27939;SDS011;15275;51.716;14.324;2023-03-04T08:44:10;11.77;;;5.47;;
27939;SDS011;15275;51.716;14.324;2023-03-04T08:46:36;15.80;;;6.70;;
27939;SDS011;15275;51.716;14.324;2023-03-04T08:49:04;14.90;;;6.45;;
27939;SDS011;15275;51.716;14.324;2023-03-04T08:51:30;14.55;;;6.30;;
27939;SDS011;15275;51.716;14.324;2023-03-04T08:53:56;13.75;;;6.47;;
27939;SDS011;15275;51.716;14.324;2023-03-04T08:56:22;12.13;;;6.03;;
27939;SDS011;15275;51.716;14.324;2023-03-04T08:58:48;14.45;;;6.43;;
27939;SDS011;15275;51.716;14.324;2023-03-04T09:01:14;18.60;;;6.60;;
27939;SDS011;15275;51.716;14.324;2023-03-04T09:03:41;12.57;;;7.03;;
27939;SDS011;15275;51.716;14.324;2023-03-04T09:06:07;16.45;;;6.05;;
27939;SDS011;15275;51.716;14.324;2023-03-04T09:08:38;16.60;;;6.05;;
27939;SDS011;15275;51.716;14.324;2023-03-04T09:11:03;10.10;;;5.30;;
27939;SDS011;15275;51.716;14.324;2023-03-04T09:13:30;13.52;;;5.65;;
27939;SDS011;15275;51.716;14.324;2023-03-04T09:15:57;12.52;;;6.05;;
27939;SDS011;15275;51.716;14.324;2023-03-04T09:18:23;12.55;;;5.30;;
27939;SDS011;15275;51.716;14.324;2023-03-04T09:20:49;11.38;;;5.22;;
27939;SDS011;15275;51.716;14.324;2023-03-04T09:23:16;10.40;;;5.18;;
27939;SDS011;15275;51.716;14.324;2023-03-04T09:25:43;10.82;;;5.72;;
27939;SDS011;15275;51.716;14.324;2023-03-04T09:28:11;9.95;;;4.93;;
27939;SDS011;15275;51.716;14.324;2023-03-04T09:30:38;8.73;;;4.93;;
27939;SDS011;15275;51.716;14.324;2023-03-04T09:33:04;22.55;;;5.97;;
27939;SDS011;15275;51.716;14.324;2023-03-04T09:35:30;10.80;;;5.13;;
27939;SDS011;15275;51.716;14.324;2023-03-04T09:37:56;15.43;;;4.97;;
27939;SDS011;15275;51.716;14.324;2023-03-04T09:40:24;11.95;;;4.82;;
27939;SDS011;15275;51.716;14.324;2023-03-04T09:42:58;11.13;;;4.88;;
27939;SDS011;15275;51.716;14.324;2023-03-04T09:45:38;8.45;;;4.10;;
27939;SDS011;15275;51.716;14.324;2023-03-04T09:48:15;9.25;;;4.30;;
27939;SDS011;15275;51.716;14.324;2023-03-04T09:53:24;9.30;;;4.35;;
27939;SDS011;15275;51.716;14.324;2023-03-04T09:56:16;7.97;;;4.47;;
27939;SDS011;15275;51.716;14.324;2023-03-04T10:01:49;6.00;;;3.88;;
27939;SDS011;15275;51.716;14.324;2023-03-04T10:07:03;7.47;;;3.65;;
27939;SDS011;15275;51.716;14.324;2023-03-04T10:12:19;9.20;;;4.78;;
27939;SDS011;15275;51.716;14.324;2023-03-04T10:14:50;6.28;;;3.28;;
27939;SDS011;15275;51.716;14.324;2023-03-04T10:17:25;4.63;;;3.45;;
27939;SDS011;15275;51.716;14.324;2023-03-04T10:20:22;6.57;;;3.35;;
27939;SDS011;15275;51.716;14.324;2023-03-04T10:23:13;8.15;;;4.40;;
27939;SDS011;15275;51.716;14.324;2023-03-04T10:25:44;5.20;;;2.90;;
27939;SDS011;15275;51.716;14.324;2023-03-04T10:30:57;7.97;;;3.47;;
27939;SDS011;15275;51.716;14.324;2023-03-04T10:33:25;5.43;;;3.35;;
27939;SDS011;15275;51.716;14.324;2023-03-04T10:38:51;5.15;;;2.72;;
27939;SDS011;15275;51.716;14.324;2023-03-04T10:41:22;5.38;;;3.05;;
27939;SDS011;15275;51.716;14.324;2023-03-04T10:46:36;3.65;;;2.17;;
27939;SDS011;15275;51.716;14.324;2023-03-04T10:49:03;3.85;;;2.42;;
27939;SDS011;15275;51.716;14.324;2023-03-04T10:51:30;3.38;;;2.63;;
27939;SDS011;15275;51.716;14.324;2023-03-04T10:57:18;6.13;;;3.00;;
27939;SDS011;15275;51.716;14.324;2023-03-04T10:59:48;8.18;;;3.30;;
27939;SDS011;15275;51.716;14.324;2023-03-04T11:02:31;5.07;;;3.05;;
27939;SDS011;15275;51.716;14.324;2023-03-04T11:05:05;9.52;;;4.07;;
27939;SDS011;15275;51.716;14.324;2023-03-04T11:07:50;7.03;;;3.13;;
27939;SDS011;15275;51.716;14.324;2023-03-04T11:10:20;5.07;;;2.42;;
27939;SDS011;15275;51.716;14.324;2023-03-04T11:12:55;6.72;;;2.53;;
27939;SDS011;15275;51.716;14.324;2023-03-04T11:15:27;5.95;;;2.67;;
27939;SDS011;15275;51.716;14.324;2023-03-04T11:17:59;4.50;;;2.47;;
27939;SDS011;15275;51.716;14.324;2023-03-04T11:20:41;4.78;;;2.22;;
27939;SDS011;15275;51.716;14.324;2023-03-04T11:23:17;4.93;;;2.35;;
27939;SDS011;15275;51.716;14.324;2023-03-04T11:25:57;8.65;;;2.65;;
27939;SDS011;15275;51.716;14.324;2023-03-04T11:31:33;6.95;;;2.35;;
27939;SDS011;15275;51.716;14.324;2023-03-04T11:34:14;9.00;;;2.00;;
27939;SDS011;15275;51.716;14.324;2023-03-04T11:36:52;5.40;;;2.22;;
27939;SDS011;15275;51.716;14.324;2023-03-04T11:39:36;5.18;;;2.10;;
27939;SDS011;15275;51.716;14.324;2023-03-04T11:49:27;2.78;;;1.80;;
27939;SDS011;15275;51.716;14.324;2023-03-04T12:03:15;3.15;;;1.67;;
27939;SDS011;15275;51.716;14.324;2023-03-04T12:06:28;3.53;;;1.83;;
27939;SDS011;15275;51.716;14.324;2023-03-04T12:12:24;4.35;;;1.80;;
27939;SDS011;15275;51.716;14.324;2023-03-04T12:15:13;6.35;;;1.70;;
27939;SDS011;15275;51.716;14.324;2023-03-04T12:21:11;2.83;;;1.50;;
27939;SDS011;15275;51.716;14.324;2023-03-04T12:26:54;4.63;;;1.38;;
27939;SDS011;15275;51.716;14.324;2023-03-04T12:40:29;8.20;;;2.20;;
27939;SDS011;15275;51.716;14.324;2023-03-04T12:59:22;6.95;;;1.98;;
27939;SDS011;15275;51.716;14.324;2023-03-04T13:10:59;4.05;;;1.60;;
27939;SDS011;15275;51.716;14.324;2023-03-04T13:16:00;3.65;;;1.60;;
27939;SDS011;15275;51.716;14.324;2023-03-04T13:18:48;4.50;;;1.50;;
27939;SDS011;15275;51.716;14.324;2023-03-04T13:21:22;9.88;;;1.75;;
27939;SDS011;15275;51.716;14.324;2023-03-04T13:23:53;5.90;;;1.60;;
27939;SDS011;15275;51.716;14.324;2023-03-04T13:29:08;8.55;;;1.95;;
27939;SDS011;15275;51.716;14.324;2023-03-04T13:34:44;5.10;;;1.50;;
27939;SDS011;15275;51.716;14.324;2023-03-04T13:37:47;7.05;;;1.85;;
27939;SDS011;15275;51.716;14.324;2023-03-04T13:42:47;7.03;;;1.95;;
27939;SDS011;15275;51.716;14.324;2023-03-04T13:45:31;5.10;;;2.15;;
27939;SDS011;15275;51.716;14.324;2023-03-04T13:48:00;8.82;;;1.83;;
27939;SDS011;15275;51.716;14.324;2023-03-04T13:53:19;13.23;;;2.15;;
27939;SDS011;15275;51.716;14.324;2023-03-04T13:56:17;10.23;;;3.03;;
27939;SDS011;15275;51.716;14.324;2023-03-04T14:01:48;8.93;;;2.25;;
27939;SDS011;15275;51.716;14.324;2023-03-04T14:04:29;11.70;;;2.47;;
27939;SDS011;15275;51.716;14.324;2023-03-04T14:07:02;5.38;;;1.83;;
27939;SDS011;15275;51.716;14.324;2023-03-04T14:10:07;17.73;;;3.65;;
27939;SDS011;15275;51.716;14.324;2023-03-04T14:12:52;3.95;;;1.55;;
27939;SDS011;15275;51.716;14.324;2023-03-04T14:17:54;12.80;;;2.75;;
27939;SDS011;15275;51.716;14.324;2023-03-04T14:23:23;8.45;;;2.03;;
27939;SDS011;15275;51.716;14.324;2023-03-04T14:25:51;7.50;;;1.83;;
27939;SDS011;15275;51.716;14.324;2023-03-04T14:28:46;9.80;;;2.72;;
27939;SDS011;15275;51.716;14.324;2023-03-04T14:31:17;9.88;;;2.42;;
27939;SDS011;15275;51.716;14.324;2023-03-04T14:33:48;13.82;;;2.47;;
27939;SDS011;15275;51.716;14.324;2023-03-04T14:36:19;13.80;;;3.35;;
27939;SDS011;15275;51.716;14.324;2023-03-04T14:39:05;20.50;;;2.88;;
27939;SDS011;15275;51.716;14.324;2023-03-04T14:41:35;9.80;;;2.65;;
27939;SDS011;15275;51.716;14.324;2023-03-04T14:44:39;7.88;;;1.70;;
27939;SDS011;15275;51.716;14.324;2023-03-04T14:47:12;8.60;;;1.80;;
27939;SDS011;15275;51.716;14.324;2023-03-04T14:49:55;10.73;;;2.45;;
27939;SDS011;15275;51.716;14.324;2023-03-04T14:52:32;10.15;;;2.25;;
27939;SDS011;15275;51.716;14.324;2023-03-04T14:55:19;11.52;;;2.83;;
27939;SDS011;15275;51.716;14.324;2023-03-04T14:58:04;13.05;;;2.67;;
27939;SDS011;15275;51.716;14.324;2023-03-04T15:00:44;8.60;;;2.17;;
27939;SDS011;15275;51.716;14.324;2023-03-04T15:06:24;20.42;;;3.03;;
27939;SDS011;15275;51.716;14.324;2023-03-04T15:08:57;7.57;;;1.95;;
27939;SDS011;15275;51.716;14.324;2023-03-04T15:12:01;9.82;;;3.00;;
27939;SDS011;15275;51.716;14.324;2023-03-04T15:14:45;13.98;;;2.97;;
27939;SDS011;15275;51.716;14.324;2023-03-04T15:25:13;15.05;;;2.35;;
27939;SDS011;15275;51.716;14.324;2023-03-04T15:27:40;10.98;;;2.67;;
27939;SDS011;15275;51.716;14.324;2023-03-04T15:30:19;13.95;;;2.78;;
27939;SDS011;15275;51.716;14.324;2023-03-04T15:32:55;8.50;;;2.15;;
27939;SDS011;15275;51.716;14.324;2023-03-04T15:35:22;13.68;;;2.83;;
27939;SDS011;15275;51.716;14.324;2023-03-04T15:37:49;13.27;;;2.95;;
27939;SDS011;15275;51.716;14.324;2023-03-04T15:42:52;13.10;;;2.85;;
27939;SDS011;15275;51.716;14.324;2023-03-04T15:45:24;13.40;;;3.35;;
27939;SDS011;15275;51.716;14.324;2023-03-04T15:47:53;13.32;;;3.13;;
27939;SDS011;15275;51.716;14.324;2023-03-04T15:50:19;14.63;;;3.15;;
27939;SDS011;15275;51.716;14.324;2023-03-04T15:52:46;11.68;;;3.35;;
27939;SDS011;15275;51.716;14.324;2023-03-04T15:55:13;10.02;;;2.70;;
27939;SDS011;15275;51.716;14.324;2023-03-04T15:57:44;10.95;;;2.85;;
27939;SDS011;15275;51.716;14.324;2023-03-04T16:00:17;15.65;;;2.75;;
27939;SDS011;15275;51.716;14.324;2023-03-04T16:02:43;9.23;;;2.60;;
27939;SDS011;15275;51.716;14.324;2023-03-04T16:05:10;11.43;;;3.35;;
27939;SDS011;15275;51.716;14.324;2023-03-04T16:07:36;14.35;;;2.88;;
27939;SDS011;15275;51.716;14.324;2023-03-04T16:10:06;17.92;;;3.60;;
27939;SDS011;15275;51.716;14.324;2023-03-04T16:12:56;13.15;;;2.60;;
27939;SDS011;15275;51.716;14.324;2023-03-04T16:15:23;10.00;;;2.60;;
27939;SDS011;15275;51.716;14.324;2023-03-04T16:17:52;12.75;;;4.30;;
27939;SDS011;15275;51.716;14.324;2023-03-04T16:20:20;14.23;;;2.80;;
27939;SDS011;15275;51.716;14.324;2023-03-04T16:22:54;8.25;;;2.35;;
27939;SDS011;15275;51.716;14.324;2023-03-04T16:25:23;11.88;;;3.28;;
27939;SDS011;15275;51.716;14.324;2023-03-04T16:27:49;9.55;;;2.30;;
27939;SDS011;15275;51.716;14.324;2023-03-04T16:30:18;9.82;;;2.60;;
27939;SDS011;15275;51.716;14.324;2023-03-04T16:32:48;18.58;;;2.47;;
27939;SDS011;15275;51.716;14.324;2023-03-04T16:35:15;10.55;;;3.15;;
27939;SDS011;15275;51.716;14.324;2023-03-04T16:37:43;9.98;;;2.45;;
27939;SDS011;15275;51.716;14.324;2023-03-04T16:40:13;11.02;;;2.25;;
27939;SDS011;15275;51.716;14.324;2023-03-04T16:42:41;12.10;;;2.72;;
27939;SDS011;15275;51.716;14.324;2023-03-04T16:45:14;7.35;;;2.30;;
27939;SDS011;15275;51.716;14.324;2023-03-04T16:47:42;11.63;;;2.33;;
27939;SDS011;15275;51.716;14.324;2023-03-04T16:50:19;9.52;;;1.88;;